sensor_id;sensor_type;location;lat;lon;timestamp;pressure;altitude;pressure_sealevel;temperature;humidity
75585;BME280;64162;53.508;10.476;2022-11-21T00:00:37;100043.78;;;-1.67;83.73
75585;BME280;64162;53.508;10.476;2022-11-21T00:03:03;100039.28;;;-1.62;83.37
75585;BME280;64162;53.508;10.476;2022-11-21T00:05:31;100036.53;;;-1.57;83.26
75585;BME280;64162;53.508;10.476;2022-11-21T00:07:57;100037.31;;;-1.55;83.48
75585;BME280;64162;53.508;10.476;2022-11-21T00:10:25;100048.16;;;-1.47;84.61
75585;BME280;64162;53.508;10.476;2022-11-21T00:12:55;100041.00;;;-1.41;84.50
75585;BME280;64162;53.508;10.476;2022-11-21T00:15:23;100054.59;;;-1.36;84.46
75585;BME280;64162;53.508;10.476;2022-11-21T00:17:50;100043.09;;;-1.28;84.32
75585;BME280;64162;53.508;10.476;2022-11-21T00:20:18;100041.94;;;-1.21;85.24
75585;BME280;64162;53.508;10.476;2022-11-21T00:22:45;100040.06;;;-1.18;84.74
75585;BME280;64162;53.508;10.476;2022-11-21T00:25:12;100038.94;;;-1.12;85.03
75585;BME280;64162;53.508;10.476;2022-11-21T00:27:39;100035.19;;;-1.05;84.65
75585;BME280;64162;53.508;10.476;2022-11-21T00:30:07;100030.59;;;-0.98;85.44
75585;BME280;64162;53.508;10.476;2022-11-21T00:32:34;100025.25;;;-0.94;85.04
75585;BME280;64162;53.508;10.476;2022-11-21T00:35:01;100023.44;;;-0.92;85.34
75585;BME280;64162;53.508;10.476;2022-11-21T00:37:27;100019.03;;;-0.90;85.02
75585;BME280;64162;53.508;10.476;2022-11-21T00:39:54;100016.31;;;-0.87;85.17
75585;BME280;64162;53.508;10.476;2022-11-21T00:42:20;100015.59;;;-0.90;84.70
75585;BME280;64162;53.508;10.476;2022-11-21T00:44:46;100009.59;;;-0.91;84.08
75585;BME280;64162;53.508;10.476;2022-11-21T00:47:13;100011.47;;;-0.94;84.05
75585;BME280;64162;53.508;10.476;2022-11-21T00:49:39;100007.97;;;-0.93;84.08
75585;BME280;64162;53.508;10.476;2022-11-21T00:52:06;100003.22;;;-1.03;83.75
75585;BME280;64162;53.508;10.476;2022-11-21T00:54:32;99996.63;;;-1.10;83.68
75585;BME280;64162;53.508;10.476;2022-11-21T00:56:59;100006.25;;;-1.13;84.32
75585;BME280;64162;53.508;10.476;2022-11-21T00:59:25;99999.69;;;-1.20;83.61
75585;BME280;64162;53.508;10.476;2022-11-21T01:01:52;99995.75;;;-1.29;82.88
75585;BME280;64162;53.508;10.476;2022-11-21T01:04:18;99993.09;;;-1.27;83.70
75585;BME280;64162;53.508;10.476;2022-11-21T01:06:44;99995.03;;;-1.33;83.90
75585;BME280;64162;53.508;10.476;2022-11-21T01:09:11;99990.13;;;-1.39;83.66
75585;BME280;64162;53.508;10.476;2022-11-21T01:11:37;99998.91;;;-1.43;83.95
75585;BME280;64162;53.508;10.476;2022-11-21T01:14:04;100002.50;;;-1.47;83.48
75585;BME280;64162;53.508;10.476;2022-11-21T01:16:31;100003.91;;;-1.60;83.52
75585;BME280;64162;53.508;10.476;2022-11-21T01:18:57;100002.16;;;-1.59;83.27
75585;BME280;64162;53.508;10.476;2022-11-21T01:21:27;99996.22;;;-1.61;84.10
75585;BME280;64162;53.508;10.476;2022-11-21T01:23:54;99998.09;;;-1.65;83.82
75585;BME280;64162;53.508;10.476;2022-11-21T01:26:23;100002.41;;;-1.66;84.09
75585;BME280;64162;53.508;10.476;2022-11-21T01:28:50;99998.16;;;-1.67;84.22
75585;BME280;64162;53.508;10.476;2022-11-21T01:31:27;99991.31;;;-1.68;84.33
75585;BME280;64162;53.508;10.476;2022-11-21T01:33:56;99991.13;;;-1.63;84.21
75585;BME280;64162;53.508;10.476;2022-11-21T01:36:28;99999.59;;;-1.59;84.10
75585;BME280;64162;53.508;10.476;2022-11-21T01:38:57;99992.81;;;-1.62;83.72
75585;BME280;64162;53.508;10.476;2022-11-21T01:41:36;99999.53;;;-1.58;84.02
75585;BME280;64162;53.508;10.476;2022-11-21T01:46:36;99998.63;;;-1.57;83.63
75585;BME280;64162;53.508;10.476;2022-11-21T01:49:16;99999.28;;;-1.52;83.91
75585;BME280;64162;53.508;10.476;2022-11-21T01:51:51;99999.09;;;-1.47;83.72
75585;BME280;64162;53.508;10.476;2022-11-21T01:54:21;99994.00;;;-1.49;83.95
75585;BME280;64162;53.508;10.476;2022-11-21T01:59:35;99981.91;;;-1.48;83.46
75585;BME280;64162;53.508;10.476;2022-11-21T02:02:05;99986.44;;;-1.53;83.61
75585;BME280;64162;53.508;10.476;2022-11-21T02:04:34;99987.19;;;-1.51;83.59
75585;BME280;64162;53.508;10.476;2022-11-21T02:07:03;99998.50;;;-1.54;83.31
75585;BME280;64162;53.508;10.476;2022-11-21T02:09:33;99995.59;;;-1.46;83.81
75585;BME280;64162;53.508;10.476;2022-11-21T02:12:05;100005.09;;;-1.47;83.33
75585;BME280;64162;53.508;10.476;2022-11-21T02:14:34;100006.00;;;-1.48;83.29
75585;BME280;64162;53.508;10.476;2022-11-21T02:17:04;100004.38;;;-1.50;83.54
75585;BME280;64162;53.508;10.476;2022-11-21T02:25:16;100012.66;;;-1.42;84.18
75585;BME280;64162;53.508;10.476;2022-11-21T02:27:44;100012.34;;;-1.35;83.81
75585;BME280;64162;53.508;10.476;2022-11-21T02:30:11;100012.16;;;-1.30;84.16
75585;BME280;64162;53.508;10.476;2022-11-21T02:32:41;100015.38;;;-1.25;84.18
75585;BME280;64162;53.508;10.476;2022-11-21T02:35:17;100012.22;;;-1.31;83.69
75585;BME280;64162;53.508;10.476;2022-11-21T02:37:46;100014.41;;;-1.22;83.72
75585;BME280;64162;53.508;10.476;2022-11-21T02:40:17;100017.00;;;-1.22;83.13
75585;BME280;64162;53.508;10.476;2022-11-21T02:42:59;100009.06;;;-1.18;83.32
75585;BME280;64162;53.508;10.476;2022-11-21T02:45:45;100003.00;;;-1.17;83.70
75585;BME280;64162;53.508;10.476;2022-11-21T02:48:12;100015.81;;;-1.15;83.40
75585;BME280;64162;53.508;10.476;2022-11-21T02:50:41;100009.06;;;-1.18;82.45
75585;BME280;64162;53.508;10.476;2022-11-21T02:53:10;100013.50;;;-1.21;83.07
75585;BME280;64162;53.508;10.476;2022-11-21T02:55:37;100009.91;;;-1.17;83.28
75585;BME280;64162;53.508;10.476;2022-11-21T02:58:04;100011.72;;;-1.19;82.62
75585;BME280;64162;53.508;10.476;2022-11-21T03:00:32;100011.56;;;-1.16;83.18
75585;BME280;64162;53.508;10.476;2022-11-21T03:02:58;100006.47;;;-1.18;83.23
75585;BME280;64162;53.508;10.476;2022-11-21T03:05:25;100003.06;;;-1.18;83.01
75585;BME280;64162;53.508;10.476;2022-11-21T03:07:51;100003.19;;;-1.21;82.47
75585;BME280;64162;53.508;10.476;2022-11-21T03:10:18;99999.88;;;-1.25;82.16
75585;BME280;64162;53.508;10.476;2022-11-21T03:12:45;100005.94;;;-1.26;82.28
75585;BME280;64162;53.508;10.476;2022-11-21T03:15:13;99994.91;;;-1.29;82.89
75585;BME280;64162;53.508;10.476;2022-11-21T03:17:40;99998.25;;;-1.27;82.74
75585;BME280;64162;53.508;10.476;2022-11-21T03:20:08;99997.44;;;-1.28;82.98
75585;BME280;64162;53.508;10.476;2022-11-21T03:22:34;99992.38;;;-1.31;83.15
75585;BME280;64162;53.508;10.476;2022-11-21T03:25:01;99988.19;;;-1.34;83.07
75585;BME280;64162;53.508;10.476;2022-11-21T03:27:27;99991.69;;;-1.35;83.09
75585;BME280;64162;53.508;10.476;2022-11-21T03:29:54;99978.69;;;-1.33;83.22
75585;BME280;64162;53.508;10.476;2022-11-21T03:32:20;99985.47;;;-1.30;83.35
75585;BME280;64162;53.508;10.476;2022-11-21T03:34:46;99981.78;;;-1.25;83.25
75585;BME280;64162;53.508;10.476;2022-11-21T03:37:13;99985.94;;;-1.21;83.59
75585;BME280;64162;53.508;10.476;2022-11-21T03:39:40;99986.00;;;-1.22;84.05
75585;BME280;64162;53.508;10.476;2022-11-21T03:42:06;99981.53;;;-1.19;84.03
75585;BME280;64162;53.508;10.476;2022-11-21T03:44:32;99978.94;;;-1.19;83.62
75585;BME280;64162;53.508;10.476;2022-11-21T03:46:59;99983.91;;;-1.14;84.13
75585;BME280;64162;53.508;10.476;2022-11-21T03:49:25;99986.56;;;-1.16;83.72
75585;BME280;64162;53.508;10.476;2022-11-21T03:51:52;99989.84;;;-1.12;83.93
75585;BME280;64162;53.508;10.476;2022-11-21T03:54:18;99986.41;;;-1.13;83.87
75585;BME280;64162;53.508;10.476;2022-11-21T03:56:45;99976.00;;;-1.11;83.41
75585;BME280;64162;53.508;10.476;2022-11-21T03:59:11;99976.84;;;-1.11;83.85
75585;BME280;64162;53.508;10.476;2022-11-21T04:01:37;99979.44;;;-1.11;83.56
75585;BME280;64162;53.508;10.476;2022-11-21T04:04:04;99983.00;;;-1.13;83.96
75585;BME280;64162;53.508;10.476;2022-11-21T04:06:31;99974.41;;;-1.14;83.81
75585;BME280;64162;53.508;10.476;2022-11-21T04:08:57;99984.78;;;-1.15;83.22
75585;BME280;64162;53.508;10.476;2022-11-21T04:11:24;99981.31;;;-1.14;83.74
75585;BME280;64162;53.508;10.476;2022-11-21T04:13:51;99983.91;;;-1.14;83.10
75585;BME280;64162;53.508;10.476;2022-11-21T04:16:18;99988.16;;;-1.13;83.69
75585;BME280;64162;53.508;10.476;2022-11-21T04:18:44;99987.19;;;-1.11;83.81
75585;BME280;64162;53.508;10.476;2022-11-21T04:21:11;99990.53;;;-1.09;84.00
75585;BME280;64162;53.508;10.476;2022-11-21T04:23:37;99980.22;;;-1.09;83.99
75585;BME280;64162;53.508;10.476;2022-11-21T04:26:04;99987.84;;;-1.06;84.22
75585;BME280;64162;53.508;10.476;2022-11-21T04:28:30;99994.63;;;-1.03;83.34
75585;BME280;64162;53.508;10.476;2022-11-21T04:31:07;99987.69;;;-1.03;83.93
75585;BME280;64162;53.508;10.476;2022-11-21T04:33:36;99992.88;;;-1.03;84.05
75585;BME280;64162;53.508;10.476;2022-11-21T04:36:03;100001.41;;;-1.01;84.13
75585;BME280;64162;53.508;10.476;2022-11-21T04:38:30;99995.31;;;-1.00;83.65
75585;BME280;64162;53.508;10.476;2022-11-21T04:40:56;99997.97;;;-1.01;83.80
75585;BME280;64162;53.508;10.476;2022-11-21T04:43:22;99999.72;;;-1.02;83.83
75585;BME280;64162;53.508;10.476;2022-11-21T04:45:49;99999.78;;;-1.03;83.87
75585;BME280;64162;53.508;10.476;2022-11-21T04:48:15;100002.44;;;-1.05;83.84
75585;BME280;64162;53.508;10.476;2022-11-21T04:50:42;100000.50;;;-1.00;83.11
75585;BME280;64162;53.508;10.476;2022-11-21T04:53:08;100008.31;;;-1.01;83.36
75585;BME280;64162;53.508;10.476;2022-11-21T04:55:35;100007.16;;;-0.94;83.96
75585;BME280;64162;53.508;10.476;2022-11-21T04:58:02;100004.63;;;-0.95;83.67
75585;BME280;64162;53.508;10.476;2022-11-21T05:00:28;100006.31;;;-0.94;83.55
75585;BME280;64162;53.508;10.476;2022-11-21T05:03:03;99998.41;;;-0.91;83.65
75585;BME280;64162;53.508;10.476;2022-11-21T05:05:30;99990.59;;;-0.90;83.93
75585;BME280;64162;53.508;10.476;2022-11-21T05:07:56;99998.22;;;-0.87;83.88
75585;BME280;64162;53.508;10.476;2022-11-21T05:10:23;99996.81;;;-0.94;83.44
75585;BME280;64162;53.508;10.476;2022-11-21T05:12:57;99995.06;;;-0.93;83.64
75585;BME280;64162;53.508;10.476;2022-11-21T05:15:42;100007.84;;;-0.90;83.57
75585;BME280;64162;53.508;10.476;2022-11-21T05:18:09;99996.75;;;-0.92;83.55
75585;BME280;64162;53.508;10.476;2022-11-21T05:20:35;100000.28;;;-0.95;82.78
75585;BME280;64162;53.508;10.476;2022-11-21T05:23:02;99998.88;;;-1.02;83.49
75585;BME280;64162;53.508;10.476;2022-11-21T05:25:29;100001.19;;;-0.96;83.07
75585;BME280;64162;53.508;10.476;2022-11-21T05:27:55;100009.09;;;-0.99;83.29
75585;BME280;64162;53.508;10.476;2022-11-21T05:30:22;100010.78;;;-0.98;83.59
75585;BME280;64162;53.508;10.476;2022-11-21T05:32:48;100021.69;;;-0.91;83.23
75585;BME280;64162;53.508;10.476;2022-11-21T05:35:15;100013.28;;;-0.96;83.29
75585;BME280;64162;53.508;10.476;2022-11-21T05:37:41;100019.44;;;-0.99;82.83
75585;BME280;64162;53.508;10.476;2022-11-21T05:40:08;100020.13;;;-0.95;83.23
75585;BME280;64162;53.508;10.476;2022-11-21T05:42:38;100016.59;;;-0.93;82.77
75585;BME280;64162;53.508;10.476;2022-11-21T05:45:23;100020.00;;;-0.92;83.12
75585;BME280;64162;53.508;10.476;2022-11-21T05:47:50;100013.09;;;-0.92;83.05
75585;BME280;64162;53.508;10.476;2022-11-21T05:50:16;100013.81;;;-0.88;82.95
75585;BME280;64162;53.508;10.476;2022-11-21T05:52:43;100013.88;;;-0.90;82.81
75585;BME280;64162;53.508;10.476;2022-11-21T05:55:09;100011.09;;;-0.85;82.96
75585;BME280;64162;53.508;10.476;2022-11-21T05:57:36;100020.50;;;-0.84;83.23
75585;BME280;64162;53.508;10.476;2022-11-21T06:00:03;100014.50;;;-0.85;82.42
75585;BME280;64162;53.508;10.476;2022-11-21T06:02:29;100015.41;;;-0.86;82.68
75585;BME280;64162;53.508;10.476;2022-11-21T06:05:14;100007.91;;;-0.92;82.96
75585;BME280;64162;53.508;10.476;2022-11-21T06:07:41;100016.50;;;-0.91;81.92
75585;BME280;64162;53.508;10.476;2022-11-21T06:10:07;100015.81;;;-0.95;81.99
75585;BME280;64162;53.508;10.476;2022-11-21T06:12:34;100009.88;;;-0.97;82.76
75585;BME280;64162;53.508;10.476;2022-11-21T06:15:00;100015.22;;;-1.02;81.63
75585;BME280;64162;53.508;10.476;2022-11-21T06:17:27;100014.19;;;-0.97;82.79
75585;BME280;64162;53.508;10.476;2022-11-21T06:19:53;100014.25;;;-0.99;82.68
75585;BME280;64162;53.508;10.476;2022-11-21T06:22:20;100004.69;;;-0.97;83.14
75585;BME280;64162;53.508;10.476;2022-11-21T06:24:46;100010.13;;;-1.03;83.15
75585;BME280;64162;53.508;10.476;2022-11-21T06:27:13;100018.53;;;-0.98;82.25
75585;BME280;64162;53.508;10.476;2022-11-21T06:29:39;100016.66;;;-0.94;83.04
75585;BME280;64162;53.508;10.476;2022-11-21T06:32:05;100012.19;;;-0.91;83.14
75585;BME280;64162;53.508;10.476;2022-11-21T06:34:32;100008.88;;;-0.94;83.18
75585;BME280;64162;53.508;10.476;2022-11-21T06:36:59;100003.84;;;-0.97;83.03
75585;BME280;64162;53.508;10.476;2022-11-21T06:39:25;100013.88;;;-0.90;82.85
75585;BME280;64162;53.508;10.476;2022-11-21T06:41:52;100007.72;;;-0.87;82.63
75585;BME280;64162;53.508;10.476;2022-11-21T06:44:18;100009.53;;;-0.89;82.66
75585;BME280;64162;53.508;10.476;2022-11-21T06:46:45;100007.84;;;-0.90;82.97
75585;BME280;64162;53.508;10.476;2022-11-21T06:49:15;100007.78;;;-0.89;82.08
75585;BME280;64162;53.508;10.476;2022-11-21T06:51:41;100009.47;;;-0.88;81.72
75585;BME280;64162;53.508;10.476;2022-11-21T06:54:07;100013.72;;;-0.87;82.05
75585;BME280;64162;53.508;10.476;2022-11-21T06:56:35;100016.38;;;-0.88;81.76
75585;BME280;64162;53.508;10.476;2022-11-21T06:59:02;100015.69;;;-0.92;82.80
75585;BME280;64162;53.508;10.476;2022-11-21T07:01:28;100009.78;;;-0.95;82.10
75585;BME280;64162;53.508;10.476;2022-11-21T07:03:55;100013.03;;;-0.90;82.58
75585;BME280;64162;53.508;10.476;2022-11-21T07:06:22;100021.50;;;-0.87;81.72
75585;BME280;64162;53.508;10.476;2022-11-21T07:08:52;100018.91;;;-0.87;82.28
75585;BME280;64162;53.508;10.476;2022-11-21T07:11:30;100023.50;;;-0.93;82.03
75585;BME280;64162;53.508;10.476;2022-11-21T07:13:57;100029.13;;;-0.84;82.27
75585;BME280;64162;53.508;10.476;2022-11-21T07:16:23;100020.50;;;-0.84;82.94
75585;BME280;64162;53.508;10.476;2022-11-21T07:18:51;100025.63;;;-0.83;82.55
75585;BME280;64162;53.508;10.476;2022-11-21T07:21:17;100014.25;;;-0.79;82.60
75585;BME280;64162;53.508;10.476;2022-11-21T07:23:44;100022.84;;;-0.78;81.82
75585;BME280;64162;53.508;10.476;2022-11-21T07:26:10;100030.53;;;-0.77;81.47
75585;BME280;64162;53.508;10.476;2022-11-21T07:28:37;100020.81;;;-0.72;82.20
75585;BME280;64162;53.508;10.476;2022-11-21T07:31:04;100018.31;;;-0.73;81.76
75585;BME280;64162;53.508;10.476;2022-11-21T07:33:33;100018.25;;;-0.72;82.08
75585;BME280;64162;53.508;10.476;2022-11-21T07:36:00;100020.00;;;-0.72;81.74
75585;BME280;64162;53.508;10.476;2022-11-21T07:38:26;100014.75;;;-0.71;81.95
75585;BME280;64162;53.508;10.476;2022-11-21T07:40:55;100010.22;;;-0.65;82.10
75585;BME280;64162;53.508;10.476;2022-11-21T07:43:21;100013.56;;;-0.63;82.11
75585;BME280;64162;53.508;10.476;2022-11-21T07:45:48;100013.97;;;-0.54;81.38
75585;BME280;64162;53.508;10.476;2022-11-21T07:48:14;100017.97;;;-0.47;81.57
75585;BME280;64162;53.508;10.476;2022-11-21T07:50:41;100016.28;;;-0.48;81.43
75585;BME280;64162;53.508;10.476;2022-11-21T07:53:10;100015.44;;;-0.48;81.30
75585;BME280;64162;53.508;10.476;2022-11-21T07:55:37;100026.56;;;-0.46;80.96
75585;BME280;64162;53.508;10.476;2022-11-21T07:58:08;100013.75;;;-0.49;81.13
75585;BME280;64162;53.508;10.476;2022-11-21T08:00:37;100013.75;;;-0.49;80.86
75585;BME280;64162;53.508;10.476;2022-11-21T08:03:04;100010.91;;;-0.43;80.40
75585;BME280;64162;53.508;10.476;2022-11-21T08:05:37;100016.56;;;-0.35;80.56
75585;BME280;64162;53.508;10.476;2022-11-21T08:08:05;99997.47;;;-0.32;80.76
75585;BME280;64162;53.508;10.476;2022-11-21T08:10:35;100005.53;;;-0.20;80.76
75585;BME280;64162;53.508;10.476;2022-11-21T08:13:02;100008.47;;;-0.09;80.47
75585;BME280;64162;53.508;10.476;2022-11-21T08:15:28;100006.34;;;-0.01;80.39
75585;BME280;64162;53.508;10.476;2022-11-21T08:17:55;100008.63;;;0.06;80.52
75585;BME280;64162;53.508;10.476;2022-11-21T08:20:21;100013.88;;;0.04;80.10
75585;BME280;64162;53.508;10.476;2022-11-21T08:22:48;100014.34;;;0.12;78.83
75585;BME280;64162;53.508;10.476;2022-11-21T08:25:14;100012.78;;;0.27;79.56
75585;BME280;64162;53.508;10.476;2022-11-21T08:27:41;100012.97;;;0.41;79.42
75585;BME280;64162;53.508;10.476;2022-11-21T08:30:09;100019.53;;;0.48;79.84
75585;BME280;64162;53.508;10.476;2022-11-21T08:32:36;100022.41;;;0.59;80.38
75585;BME280;64162;53.508;10.476;2022-11-21T08:35:02;100018.81;;;0.62;80.09
75585;BME280;64162;53.508;10.476;2022-11-21T08:37:29;100012.50;;;0.68;78.96
75585;BME280;64162;53.508;10.476;2022-11-21T08:39:56;100014.47;;;0.62;78.66
75585;BME280;64162;53.508;10.476;2022-11-21T08:42:26;100009.91;;;0.68;79.07
75585;BME280;64162;53.508;10.476;2022-11-21T08:44:53;100003.97;;;0.83;78.99
75585;BME280;64162;53.508;10.476;2022-11-21T08:47:19;99998.00;;;0.81;77.15
75585;BME280;64162;53.508;10.476;2022-11-21T08:49:46;99996.78;;;0.88;77.56
75585;BME280;64162;53.508;10.476;2022-11-21T08:52:14;99995.19;;;0.85;79.10
75585;BME280;64162;53.508;10.476;2022-11-21T08:54:43;99993.44;;;0.86;76.07
75585;BME280;64162;53.508;10.476;2022-11-21T08:57:10;99998.53;;;0.87;78.37
75585;BME280;64162;53.508;10.476;2022-11-21T08:59:36;99994.41;;;1.01;76.68
75585;BME280;64162;53.508;10.476;2022-11-21T09:02:03;99998.06;;;0.96;77.88
75585;BME280;64162;53.508;10.476;2022-11-21T09:04:29;100004.56;;;1.05;77.78
75585;BME280;64162;53.508;10.476;2022-11-21T09:06:56;100005.53;;;1.03;77.60
75585;BME280;64162;53.508;10.476;2022-11-21T09:09:22;100010.88;;;0.99;78.36
75585;BME280;64162;53.508;10.476;2022-11-21T09:11:50;100004.03;;;0.98;78.50
75585;BME280;64162;53.508;10.476;2022-11-21T09:14:17;100007.59;;;0.96;77.39
75585;BME280;64162;53.508;10.476;2022-11-21T09:17:02;100010.75;;;0.85;78.00
75585;BME280;64162;53.508;10.476;2022-11-21T09:19:47;100011.81;;;0.98;78.09
75585;BME280;64162;53.508;10.476;2022-11-21T09:22:13;100011.25;;;1.09;78.37
75585;BME280;64162;53.508;10.476;2022-11-21T09:24:40;100021.41;;;1.14;79.08
75585;BME280;64162;53.508;10.476;2022-11-21T09:27:06;100025.66;;;1.15;77.69
75585;BME280;64162;53.508;10.476;2022-11-21T09:29:36;100025.25;;;1.22;77.85
75585;BME280;64162;53.508;10.476;2022-11-21T09:32:02;100020.13;;;1.21;78.42
75585;BME280;64162;53.508;10.476;2022-11-21T09:34:29;100014.78;;;1.08;77.90
75585;BME280;64162;53.508;10.476;2022-11-21T09:36:56;100025.38;;;1.04;77.46
75585;BME280;64162;53.508;10.476;2022-11-21T09:39:23;100018.19;;;1.09;77.39
75585;BME280;64162;53.508;10.476;2022-11-21T09:42:00;100022.66;;;1.22;76.59
75585;BME280;64162;53.508;10.476;2022-11-21T09:47:23;100029.84;;;1.50;76.82
75585;BME280;64162;53.508;10.476;2022-11-21T09:52:50;100019.47;;;1.50;76.46
75585;BME280;64162;53.508;10.476;2022-11-21T09:55:26;100012.28;;;1.55;77.03
75585;BME280;64162;53.508;10.476;2022-11-21T09:57:53;100021.22;;;1.50;77.48
75585;BME280;64162;53.508;10.476;2022-11-21T10:00:22;100019.78;;;1.44;77.70
75585;BME280;64162;53.508;10.476;2022-11-21T10:02:50;100015.94;;;1.51;76.91
75585;BME280;64162;53.508;10.476;2022-11-21T10:05:24;100011.69;;;1.50;77.96
75585;BME280;64162;53.508;10.476;2022-11-21T10:07:57;100007.41;;;1.49;76.95
75585;BME280;64162;53.508;10.476;2022-11-21T10:10:48;100015.72;;;1.56;77.37
75585;BME280;64162;53.508;10.476;2022-11-21T10:13:30;100015.03;;;1.52;77.29
75585;BME280;64162;53.508;10.476;2022-11-21T10:19:16;100012.22;;;1.73;77.24
75585;BME280;64162;53.508;10.476;2022-11-21T10:22:02;100022.41;;;1.76;77.81
75585;BME280;64162;53.508;10.476;2022-11-21T10:24:47;100011.94;;;1.93;78.10
75585;BME280;64162;53.508;10.476;2022-11-21T10:27:26;100014.22;;;1.99;76.91
75585;BME280;64162;53.508;10.476;2022-11-21T10:29:59;100015.72;;;2.03;76.78
75585;BME280;64162;53.508;10.476;2022-11-21T10:32:34;100010.09;;;2.11;77.01
75585;BME280;64162;53.508;10.476;2022-11-21T10:35:15;100020.41;;;2.28;76.62
75585;BME280;64162;53.508;10.476;2022-11-21T10:37:48;100014.78;;;2.20;75.80
75585;BME280;64162;53.508;10.476;2022-11-21T10:43:08;100009.25;;;2.26;76.28
75585;BME280;64162;53.508;10.476;2022-11-21T10:45:54;100009.84;;;2.15;75.78
75585;BME280;64162;53.508;10.476;2022-11-21T10:48:20;100015.72;;;2.19;76.26
75585;BME280;64162;53.508;10.476;2022-11-21T10:51:09;100007.81;;;2.20;75.59
75585;BME280;64162;53.508;10.476;2022-11-21T10:53:39;99998.13;;;2.08;75.92
75585;BME280;64162;53.508;10.476;2022-11-21T10:56:27;99992.59;;;1.98;76.04
75585;BME280;64162;53.508;10.476;2022-11-21T10:58:56;99985.72;;;1.82;74.53
75585;BME280;64162;53.508;10.476;2022-11-21T11:01:26;99992.28;;;1.73;75.69
75585;BME280;64162;53.508;10.476;2022-11-21T11:06:55;99988.00;;;1.56;75.46
75585;BME280;64162;53.508;10.476;2022-11-21T11:09:23;99983.81;;;1.54;76.48
75585;BME280;64162;53.508;10.476;2022-11-21T11:11:50;99979.59;;;1.51;76.69
75585;BME280;64162;53.508;10.476;2022-11-21T11:14:27;99982.53;;;1.45;78.18
75585;BME280;64162;53.508;10.476;2022-11-21T11:16:55;99984.13;;;1.48;78.30
75585;BME280;64162;53.508;10.476;2022-11-21T11:19:26;99975.06;;;1.39;76.49
75585;BME280;64162;53.508;10.476;2022-11-21T11:21:58;99967.78;;;1.46;77.82
75585;BME280;64162;53.508;10.476;2022-11-21T11:24:25;99976.75;;;1.40;77.61
75585;BME280;64162;53.508;10.476;2022-11-21T11:27:01;99972.31;;;1.42;78.20
75585;BME280;64162;53.508;10.476;2022-11-21T11:29:29;99973.63;;;1.33;78.01
75585;BME280;64162;53.508;10.476;2022-11-21T11:47:58;99959.50;;;1.86;79.16
75585;BME280;64162;53.508;10.476;2022-11-21T11:50:45;99957.22;;;1.96;79.11
75585;BME280;64162;53.508;10.476;2022-11-21T11:53:20;99956.53;;;2.08;79.02
75585;BME280;64162;53.508;10.476;2022-11-21T11:56:03;99961.22;;;2.17;79.45
75585;BME280;64162;53.508;10.476;2022-11-21T11:58:54;99967.84;;;2.23;79.35
75585;BME280;64162;53.508;10.476;2022-11-21T12:01:32;99959.59;;;2.30;78.81
75585;BME280;64162;53.508;10.476;2022-11-21T12:04:06;99950.69;;;2.35;79.35
75585;BME280;64162;53.508;10.476;2022-11-21T12:15:16;99955.44;;;2.72;77.98
75585;BME280;64162;53.508;10.476;2022-11-21T12:20:35;99945.31;;;2.96;78.43
75585;BME280;64162;53.508;10.476;2022-11-21T12:23:04;99932.22;;;3.12;77.56
75585;BME280;64162;53.508;10.476;2022-11-21T12:25:41;99925.78;;;3.17;77.58
75585;BME280;64162;53.508;10.476;2022-11-21T12:28:25;99915.00;;;3.23;77.60
75585;BME280;64162;53.508;10.476;2022-11-21T12:31:14;99906.66;;;3.18;76.41
75585;BME280;64162;53.508;10.476;2022-11-21T12:46:09;99893.28;;;2.96;76.73
75585;BME280;64162;53.508;10.476;2022-11-21T12:49:02;99891.34;;;2.85;74.98
75585;BME280;64162;53.508;10.476;2022-11-21T12:52:13;99885.69;;;2.79;76.78
75585;BME280;64162;53.508;10.476;2022-11-21T12:57:56;99882.31;;;2.62;75.93
75585;BME280;64162;53.508;10.476;2022-11-21T13:03:34;99876.13;;;2.35;77.44
75585;BME280;64162;53.508;10.476;2022-11-21T13:06:05;99865.66;;;2.37;77.36
75585;BME280;64162;53.508;10.476;2022-11-21T13:08:37;99868.44;;;2.33;78.20
75585;BME280;64162;53.508;10.476;2022-11-21T13:11:09;99861.13;;;2.26;77.18
75585;BME280;64162;53.508;10.476;2022-11-21T13:14:06;99862.56;;;2.16;76.85
75585;BME280;64162;53.508;10.476;2022-11-21T13:16:37;99863.69;;;2.12;78.14
75585;BME280;64162;53.508;10.476;2022-11-21T13:19:35;99869.22;;;2.06;76.75
75585;BME280;64162;53.508;10.476;2022-11-21T13:32:50;99867.00;;;1.84;79.50
75585;BME280;64162;53.508;10.476;2022-11-21T13:45:59;99852.50;;;1.65;79.58
75585;BME280;64162;53.508;10.476;2022-11-21T14:05:05;99852.44;;;1.36;79.68
75585;BME280;64162;53.508;10.476;2022-11-21T14:07:41;99845.56;;;1.35;79.80
75585;BME280;64162;53.508;10.476;2022-11-21T14:12:55;99851.34;;;1.24;80.30
75585;BME280;64162;53.508;10.476;2022-11-21T14:15:44;99844.56;;;1.21;79.35
75585;BME280;64162;53.508;10.476;2022-11-21T14:18:21;99849.75;;;1.21;79.96
75585;BME280;64162;53.508;10.476;2022-11-21T14:20:51;99852.50;;;1.18;80.56
75585;BME280;64162;53.508;10.476;2022-11-21T14:23:21;99851.13;;;1.13;78.96
75585;BME280;64162;53.508;10.476;2022-11-21T14:25:50;99847.84;;;1.09;78.21
75585;BME280;64162;53.508;10.476;2022-11-21T14:28:30;99848.78;;;1.08;80.14
75585;BME280;64162;53.508;10.476;2022-11-21T14:31:03;99850.84;;;1.02;78.64
75585;BME280;64162;53.508;10.476;2022-11-21T14:33:36;99848.59;;;0.95;79.52
75585;BME280;64162;53.508;10.476;2022-11-21T14:36:21;99851.66;;;0.86;79.68
75585;BME280;64162;53.508;10.476;2022-11-21T14:38:57;99842.28;;;0.84;80.78
75585;BME280;64162;53.508;10.476;2022-11-21T14:41:40;99847.72;;;0.79;79.65
75585;BME280;64162;53.508;10.476;2022-11-21T14:46:38;99840.75;;;0.64;80.91
75585;BME280;64162;53.508;10.476;2022-11-21T14:51:39;99836.81;;;0.57;80.20
75585;BME280;64162;53.508;10.476;2022-11-21T14:54:09;99832.72;;;0.53;81.08
75585;BME280;64162;53.508;10.476;2022-11-21T14:56:39;99834.78;;;0.46;81.25
75585;BME280;64162;53.508;10.476;2022-11-21T14:59:17;99832.28;;;0.45;81.50